Portland, Oregon
Traffic Map
Current Weather Conditions
Portland, Oregon
Few Clouds
Few Clouds
73°
Feels Like: 73°
Wind Chill: 73° Ceiling: Unl
Heat Index: 73° Visibility: 10mi
Dew Point: 50° Wind: 10mph
Humidity: 44% Direction: 290° (WNW)
Pressure: 30.19in Gusts: 0mph
Raw Report DataKPDX 252053Z 29009KT 10SM FEW030 23/10 A3019 RMK AO2 SLP223 T02280100 58014
Traffic Incident Summary
Active as of:
Severity:
Category:
InformationThere was an issue retrieving the traffic information for this location. Please try a different location or try again shortly.
Advertisements
Track Severe Weather on mobile